createdAt,value
2019-03-27T00:00:07.605Z,102819.70
2019-03-27T00:02:35.854Z,102828.80
2019-03-27T00:05:04.924Z,102829.53
2019-03-27T00:07:33.173Z,102832.70
2019-03-27T00:10:01.435Z,102830.98
2019-03-27T00:12:29.691Z,102825.77
2019-03-27T00:15:11.563Z,102824.35
2019-03-27T00:17:28.701Z,102820.48
2019-03-27T00:19:56.948Z,102814.52
2019-03-27T00:22:25.214Z,102803.61
2019-03-27T00:24:53.535Z,102801.89
2019-03-27T00:27:22.599Z,102801.19
2019-03-27T00:29:51.184Z,102794.02
2019-03-27T00:32:19.479Z,102795.22
2019-03-27T00:34:48.155Z,102794.03
2019-03-27T00:37:16.416Z,102797.93
2019-03-27T00:39:44.839Z,102798.63
2019-03-27T00:42:13.120Z,102804.75
2019-03-27T00:44:41.351Z,102802.80
2019-03-27T00:47:09.696Z,102811.03
2019-03-27T00:49:37.936Z,102801.12
2019-03-27T00:52:06.191Z,102799.93
2019-03-27T00:54:34.500Z,102800.90
2019-03-27T00:57:03.518Z,102808.50
2019-03-27T00:59:31.907Z,102802.47
2019-03-27T01:02:00.201Z,102802.47
2019-03-27T01:04:28.543Z,102806.05
2019-03-27T01:06:56.785Z,102798.33
2019-03-27T01:09:25.040Z,102796.45
2019-03-27T01:11:53.479Z,102791.91
2019-03-27T01:14:21.893Z,102797.24
2019-03-27T01:16:50.170Z,102797.55
2019-03-27T01:19:18.448Z,102801.34
2019-03-27T01:21:46.740Z,102786.17
2019-03-27T01:24:15.426Z,102800.89
2019-03-27T01:26:43.672Z,102800.89
2019-03-27T01:29:11.945Z,102787.36
2019-03-27T01:31:40.220Z,102786.83
2019-03-27T01:34:08.492Z,102786.83
2019-03-27T01:36:36.805Z,102788.16
2019-03-27T01:39:06.633Z,102788.16
2019-03-27T01:41:34.919Z,102787.34
2019-03-27T01:44:03.232Z,102798.92
2019-03-27T01:46:31.579Z,102798.92
2019-03-27T01:48:59.868Z,102797.30
2019-03-27T01:51:28.121Z,102803.72
2019-03-27T01:53:56.699Z,102800.73
2019-03-27T01:56:24.959Z,102809.91
2019-03-27T01:58:53.205Z,102806.98
2019-03-27T02:01:21.485Z,102806.98
2019-03-27T02:03:49.727Z,102800.16
2019-03-27T02:06:17.983Z,102792.89
2019-03-27T02:08:46.250Z,102805.80
2019-03-27T02:11:14.604Z,102805.80
2019-03-27T02:13:42.852Z,102799.84
2019-03-27T02:16:11.121Z,102799.84
2019-03-27T02:18:40.285Z,102796.63
2019-03-27T02:21:08.971Z,102790.82
2019-03-27T02:23:37.292Z,102796.24
2019-03-27T02:26:05.547Z,102789.91
2019-03-27T02:28:33.842Z,102789.91
2019-03-27T02:31:02.123Z,102784.98
2019-03-27T02:33:30.473Z,102784.98
2019-03-27T02:35:58.739Z,102796.63
2019-03-27T02:38:27.762Z,102796.63
2019-03-27T02:40:56.031Z,102801.33
2019-03-27T02:43:24.320Z,102801.33
2019-03-27T02:45:54.256Z,102793.92
2019-03-27T02:48:23.089Z,102806.94
2019-03-27T02:50:51.386Z,102804.68
2019-03-27T02:53:19.691Z,102801.56
2019-03-27T02:55:48.339Z,102807.14
2019-03-27T02:58:16.597Z,102796.77
2019-03-27T03:00:44.889Z,102800.42
2019-03-27T03:03:13.281Z,102800.42
2019-03-27T03:05:41.579Z,102804.69
2019-03-27T03:08:09.934Z,102804.69
2019-03-27T03:10:38.313Z,102803.56
2019-03-27T03:13:06.645Z,102801.56
2019-03-27T03:15:35.472Z,102801.34
2019-03-27T03:18:04.530Z,102801.34
2019-03-27T03:20:32.825Z,102787.05
2019-03-27T03:23:01.969Z,102799.03
2019-03-27T03:25:30.269Z,102792.66
2019-03-27T03:27:58.547Z,102792.66
2019-03-27T03:30:26.822Z,102797.00
2019-03-27T03:32:55.675Z,102797.00
2019-03-27T03:35:23.944Z,102800.06
2019-03-27T03:37:52.202Z,102800.06
2019-03-27T03:40:20.455Z,102800.21
2019-03-27T03:42:48.895Z,102800.21
2019-03-27T03:45:18.870Z,102797.44
2019-03-27T03:47:47.205Z,102809.77
2019-03-27T03:50:37.049Z,102809.77
2019-03-27T03:53:06.408Z,102810.27
2019-03-27T03:55:35.214Z,102810.27
2019-03-27T03:58:03.521Z,102812.38
2019-03-27T04:00:32.379Z,102821.55
2019-03-27T04:03:01.626Z,102820.36
2019-03-27T04:05:29.875Z,102820.36
2019-03-27T04:07:58.164Z,102831.41
2019-03-27T04:10:26.469Z,102831.41
2019-03-27T04:12:54.758Z,102830.73
2019-03-27T04:15:23.017Z,102832.69
2019-03-27T04:17:51.261Z,102832.69
2019-03-27T04:20:19.559Z,102822.59
2019-03-27T04:22:47.800Z,102822.59
2019-03-27T04:25:16.059Z,102836.80
2019-03-27T04:27:44.682Z,102840.77
2019-03-27T04:30:13.036Z,102840.77
2019-03-27T04:32:41.751Z,102838.89
2019-03-27T04:35:10.677Z,102827.91
2019-03-27T04:37:38.948Z,102820.72
2019-03-27T04:40:07.241Z,102820.72
2019-03-27T04:42:35.573Z,102821.26
2019-03-27T04:45:04.281Z,102826.56
2019-03-27T04:47:32.819Z,102826.56
2019-03-27T04:50:01.106Z,102827.82
2019-03-27T04:52:29.349Z,102827.82
2019-03-27T04:54:57.617Z,102838.72
2019-03-27T04:57:26.009Z,102843.20
2019-03-27T04:59:54.279Z,102843.13
2019-03-27T05:02:22.565Z,102843.13
2019-03-27T05:04:51.180Z,102848.87
2019-03-27T05:07:19.775Z,102848.87
2019-03-27T05:09:48.071Z,102842.88
2019-03-27T05:12:16.408Z,102850.35
2019-03-27T05:14:44.644Z,102856.23
2019-03-27T05:17:12.935Z,102856.23
2019-03-27T05:19:41.220Z,102843.66
2019-03-27T05:22:09.459Z,102854.72
2019-03-27T05:24:37.762Z,102842.02
2019-03-27T05:27:06.004Z,102842.02
2019-03-27T05:29:35.213Z,102851.05
2019-03-27T05:32:03.773Z,102852.53
2019-03-27T05:34:32.099Z,102863.87
2019-03-27T05:37:00.347Z,102863.87
2019-03-27T05:39:28.590Z,102869.77
2019-03-27T05:41:56.858Z,102861.32
2019-03-27T05:44:25.124Z,102869.77
2019-03-27T05:46:53.460Z,102869.77
2019-03-27T05:49:21.715Z,102859.78
2019-03-27T05:51:50.003Z,102861.32
2019-03-27T05:54:18.254Z,102870.45
2019-03-27T05:56:46.547Z,102870.45
2019-03-27T05:59:14.813Z,102861.73
2019-03-27T06:01:43.149Z,102861.73
2019-03-27T06:04:11.382Z,102874.44
2019-03-27T06:06:39.625Z,102880.94
2019-03-27T06:09:07.937Z,102883.75
2019-03-27T06:11:36.180Z,102886.89
2019-03-27T06:14:04.450Z,102890.51
2019-03-27T06:16:32.751Z,102876.94
2019-03-27T06:19:01.003Z,102889.56
2019-03-27T06:21:29.262Z,102886.45
2019-03-27T06:23:57.585Z,102871.45
2019-03-27T06:26:25.830Z,102872.30
2019-03-27T06:28:54.267Z,102872.30
2019-03-27T06:31:22.546Z,102867.09
2019-03-27T06:33:50.814Z,102863.22
2019-03-27T06:36:19.074Z,102866.66
2019-03-27T06:38:47.390Z,102867.13
2019-03-27T06:41:15.661Z,102869.75
2019-03-27T06:43:44.044Z,102863.77
2019-03-27T06:46:12.337Z,102863.04
2019-03-27T06:48:40.624Z,102863.04
2019-03-27T06:51:09.251Z,102864.97
2019-03-27T06:53:37.625Z,102873.42
2019-03-27T06:56:06.457Z,102873.42
2019-03-27T06:58:34.719Z,102887.48
2019-03-27T07:01:03.510Z,102887.17
2019-03-27T07:03:31.812Z,102883.22
2019-03-27T07:06:00.066Z,102883.22
2019-03-27T07:08:28.403Z,102888.67
2019-03-27T07:10:56.761Z,102888.67
2019-03-27T07:13:25.062Z,102874.31
2019-03-27T07:15:53.328Z,102892.06
2019-03-27T07:18:21.575Z,102886.80
2019-03-27T07:20:49.940Z,102886.80
2019-03-27T07:23:18.274Z,102897.83
2019-03-27T07:25:46.520Z,102904.31
2019-03-27T07:28:15.038Z,102904.31
2019-03-27T07:30:43.448Z,102901.63
2019-03-27T07:33:11.693Z,102897.09
2019-03-27T07:35:39.933Z,102918.09
2019-03-27T07:38:08.250Z,102920.09
2019-03-27T07:40:36.598Z,102920.09
2019-03-27T07:43:04.907Z,102914.55
2019-03-27T07:45:33.215Z,102899.59
2019-03-27T07:48:01.490Z,102902.59
2019-03-27T07:50:29.732Z,102902.59
2019-03-27T07:52:58.422Z,102914.10
2019-03-27T07:55:26.716Z,102903.31
2019-03-27T07:57:54.967Z,102906.59
2019-03-27T08:00:23.313Z,102917.92
2019-03-27T08:02:51.612Z,102917.92
2019-03-27T08:05:20.652Z,102914.37
2019-03-27T08:07:49.055Z,102911.58
2019-03-27T08:10:17.332Z,102915.22
2019-03-27T08:12:45.600Z,102915.96
2019-03-27T08:15:14.470Z,102912.28
2019-03-27T08:17:42.866Z,102914.51
2019-03-27T08:20:11.104Z,102917.58
2019-03-27T08:22:39.348Z,102920.61
2019-03-27T08:25:07.938Z,102920.30
2019-03-27T08:27:36.207Z,102918.67
2019-03-27T08:30:10.208Z,102929.47
2019-03-27T08:32:38.473Z,102927.72
2019-03-27T08:35:07.343Z,102926.59
2019-03-27T08:37:35.601Z,102919.22
2019-03-27T08:40:05.921Z,102920.26
2019-03-27T08:42:34.163Z,102920.19
2019-03-27T08:45:02.485Z,102928.34
2019-03-27T08:47:30.815Z,102926.97
2019-03-27T08:49:59.102Z,102931.72
2019-03-27T08:52:27.523Z,102927.53
2019-03-27T08:54:55.764Z,102937.66
2019-03-27T08:57:24.037Z,102940.10
2019-03-27T08:59:52.377Z,102946.99
2019-03-27T09:02:20.653Z,102945.56
2019-03-27T09:04:48.886Z,102949.25
2019-03-27T09:07:17.263Z,102955.94
2019-03-27T09:09:45.511Z,102958.69
2019-03-27T09:12:13.799Z,102954.24
2019-03-27T09:14:42.097Z,102961.83
2019-03-27T09:17:10.337Z,102957.23
2019-03-27T09:19:39.163Z,102961.00
2019-03-27T09:22:07.446Z,102964.44
2019-03-27T09:24:35.731Z,102957.53
2019-03-27T09:27:04.100Z,102961.86
2019-03-27T09:29:32.342Z,102961.44
2019-03-27T09:32:00.686Z,102965.86
2019-03-27T09:34:28.926Z,102967.53
2019-03-27T09:36:57.175Z,102966.33
2019-03-27T09:39:25.565Z,102978.67
2019-03-27T09:41:54.562Z,102983.20
2019-03-27T09:44:22.824Z,102987.03
2019-03-27T09:46:51.240Z,102989.56
2019-03-27T09:49:19.483Z,102991.83
2019-03-27T09:51:48.331Z,102990.27
2019-03-27T09:54:16.794Z,102987.13
2019-03-27T09:56:45.167Z,102995.27
2019-03-27T09:59:13.412Z,102985.78
2019-03-27T10:01:41.721Z,102988.02
2019-03-27T10:04:10.015Z,102989.75
2019-03-27T10:06:39.302Z,102985.16
2019-03-27T10:09:08.192Z,102981.91
2019-03-27T10:11:36.499Z,102978.16
2019-03-27T10:14:05.155Z,102980.66
2019-03-27T10:16:33.480Z,102972.53
2019-03-27T10:19:01.786Z,102979.06
2019-03-27T10:21:30.208Z,102973.34
2019-03-27T10:23:58.448Z,102968.20
2019-03-27T10:26:26.695Z,102972.86
2019-03-27T10:28:55.329Z,102980.76
2019-03-27T10:31:23.602Z,102971.55
2019-03-27T10:33:51.908Z,102968.28
2019-03-27T10:36:20.569Z,102974.02
2019-03-27T10:38:48.919Z,102962.61
2019-03-27T10:41:17.221Z,102968.34
2019-03-27T10:43:45.810Z,102965.92
2019-03-27T10:46:14.258Z,102966.50
2019-03-27T10:48:52.523Z,102961.89
2019-03-27T10:51:12.575Z,102956.19
2019-03-27T10:53:40.924Z,102956.48
2019-03-27T10:56:09.446Z,102960.03
2019-03-27T10:58:37.731Z,102962.52
2019-03-27T11:01:07.298Z,102971.80
2019-03-27T11:03:35.929Z,102969.45
2019-03-27T11:06:04.188Z,102978.99
2019-03-27T11:08:32.492Z,102975.45
2019-03-27T11:11:00.845Z,102978.45
2019-03-27T11:13:30.021Z,102981.12
2019-03-27T11:15:58.835Z,102970.49
2019-03-27T11:18:27.189Z,102966.98
2019-03-27T11:20:55.469Z,102968.87
2019-03-27T11:23:23.741Z,102961.77
2019-03-27T11:25:52.444Z,102969.95
2019-03-27T11:28:21.044Z,102971.02
2019-03-27T11:30:49.314Z,102969.62
2019-03-27T11:33:17.570Z,102964.34
2019-03-27T11:35:45.866Z,102967.77
2019-03-27T11:38:14.151Z,102959.75
2019-03-27T11:40:42.498Z,102971.22
2019-03-27T11:43:11.414Z,102972.61
2019-03-27T11:45:39.789Z,102970.09
2019-03-27T11:48:08.378Z,102972.23
2019-03-27T11:50:44.898Z,102968.09
2019-03-27T11:53:06.796Z,102971.45
2019-03-27T11:55:35.135Z,102969.58
2019-03-27T11:58:03.419Z,102970.68
2019-03-27T12:00:31.702Z,102967.99
2019-03-27T12:03:00.089Z,102972.73
2019-03-27T12:05:28.396Z,102972.05
2019-03-27T12:07:56.736Z,102981.06
2019-03-27T12:10:25.026Z,102976.74
2019-03-27T12:12:53.298Z,102972.69
2019-03-27T12:15:33.471Z,102973.22
2019-03-27T12:18:02.139Z,102974.59
2019-03-27T12:20:30.383Z,102981.97
2019-03-27T12:22:59.013Z,102980.61
2019-03-27T12:25:27.250Z,102986.34
2019-03-27T12:27:55.513Z,102990.44
2019-03-27T12:30:23.827Z,102985.23
2019-03-27T12:32:52.101Z,102985.27
2019-03-27T12:35:20.464Z,102976.81
2019-03-27T12:37:48.789Z,102978.17
2019-03-27T12:40:17.025Z,102979.26
2019-03-27T12:42:45.289Z,102979.53
2019-03-27T12:45:13.670Z,102971.36
2019-03-27T12:47:41.947Z,102969.72
2019-03-27T12:50:10.274Z,102976.01
2019-03-27T12:52:38.597Z,102976.81
2019-03-27T12:55:07.109Z,102973.28
2019-03-27T12:57:35.348Z,102971.12
2019-03-27T13:00:04.916Z,102965.39
2019-03-27T13:02:33.312Z,102964.55
2019-03-27T13:05:01.654Z,102961.58
2019-03-27T13:07:29.925Z,102956.94
2019-03-27T13:09:58.175Z,102958.02
2019-03-27T13:12:26.533Z,102961.30
2019-03-27T13:14:54.905Z,102958.56
2019-03-27T13:17:23.279Z,102961.29
2019-03-27T13:19:51.521Z,102959.13
2019-03-27T13:22:19.762Z,102962.66
2019-03-27T13:24:48.030Z,102962.39
2019-03-27T13:27:16.321Z,102966.75
2019-03-27T13:29:44.610Z,102959.95
2019-03-27T13:32:12.847Z,102961.59
2019-03-27T13:34:41.152Z,102961.59
2019-03-27T13:37:09.456Z,102963.74
2019-03-27T13:39:37.731Z,102962.94
2019-03-27T13:42:06.126Z,102959.94
2019-03-27T13:44:37.178Z,102963.20
2019-03-27T13:47:04.503Z,102964.84
2019-03-27T13:49:33.201Z,102959.92
2019-03-27T13:52:01.656Z,102953.35
2019-03-27T13:54:29.929Z,102955.83
2019-03-27T13:56:58.233Z,102957.98
2019-03-27T13:59:27.068Z,102952.02
2019-03-27T14:01:55.331Z,102956.63
2019-03-27T14:04:23.627Z,102953.10
2019-03-27T14:06:51.888Z,102952.83
2019-03-27T14:09:20.229Z,102950.11
2019-03-27T14:11:48.511Z,102945.74
2019-03-27T14:14:16.830Z,102949.80
2019-03-27T14:16:45.071Z,102946.28
2019-03-27T14:19:13.345Z,102951.72
2019-03-27T14:21:53.757Z,102954.93
2019-03-27T14:24:11.634Z,102955.77
2019-03-27T14:26:45.411Z,102959.03
2019-03-27T14:29:10.086Z,102956.03
2019-03-27T14:31:38.323Z,102950.59
2019-03-27T14:34:06.568Z,102948.95
2019-03-27T14:36:34.916Z,102951.95
2019-03-27T14:39:04.423Z,102945.16
2019-03-27T14:41:32.670Z,102946.23
2019-03-27T14:44:00.988Z,102950.85
2019-03-27T14:46:29.308Z,102947.05
2019-03-27T14:48:58.371Z,102949.20
2019-03-27T14:51:26.680Z,102944.84
2019-03-27T14:53:55.159Z,102948.92
2019-03-27T14:56:23.505Z,102954.09
2019-03-27T14:58:51.787Z,102953.28
2019-03-27T15:01:20.196Z,102958.73
2019-03-27T15:03:48.538Z,102959.81
2019-03-27T15:06:16.814Z,102962.01
2019-03-27T15:08:45.099Z,102958.73
2019-03-27T15:11:13.474Z,102955.20
2019-03-27T15:13:41.728Z,102956.55
2019-03-27T15:16:10.024Z,102959.77
2019-03-27T15:18:38.478Z,102957.30
2019-03-27T15:21:06.707Z,102954.61
2019-03-27T15:23:34.952Z,102952.72
2019-03-27T15:26:03.308Z,102959.78
2019-03-27T15:28:31.744Z,102955.95
2019-03-27T15:31:00.004Z,102955.16
2019-03-27T15:33:28.317Z,102954.33
2019-03-27T15:35:56.588Z,102954.03
2019-03-27T15:38:24.851Z,102952.89
2019-03-27T15:40:53.157Z,102956.67
2019-03-27T15:43:21.461Z,102959.95
2019-03-27T15:45:49.734Z,102958.59
2019-03-27T15:48:18.066Z,102955.30
2019-03-27T15:50:56.878Z,102954.73
2019-03-27T15:53:16.395Z,102956.92
2019-03-27T15:55:45.057Z,102954.48
2019-03-27T15:58:13.323Z,102949.33
2019-03-27T16:00:41.590Z,102961.58
2019-03-27T16:03:09.878Z,102956.44
2019-03-27T16:05:38.260Z,102952.89
2019-03-27T16:08:06.650Z,102960.27
2019-03-27T16:10:35.063Z,102964.87
2019-03-27T16:13:03.384Z,102966.24
2019-03-27T16:15:31.655Z,102968.43
2019-03-27T16:17:59.894Z,102972.75
2019-03-27T16:20:28.767Z,102971.92
2019-03-27T16:22:57.117Z,102971.41
2019-03-27T16:25:25.704Z,102963.51
2019-03-27T16:27:54.003Z,102965.97
2019-03-27T16:30:22.324Z,102973.84
2019-03-27T16:32:50.638Z,102970.03
2019-03-27T16:35:18.957Z,102968.08
2019-03-27T16:37:47.263Z,102968.34
2019-03-27T16:40:17.731Z,102966.19
2019-03-27T16:42:46.051Z,102971.88
2019-03-27T16:45:15.145Z,102968.34
2019-03-27T16:47:44.185Z,102969.44
2019-03-27T16:50:12.456Z,102969.66
2019-03-27T16:52:40.847Z,102972.09
2019-03-27T16:55:09.199Z,102976.98
2019-03-27T16:57:37.606Z,102973.98
2019-03-27T17:00:07.396Z,102968.78
2019-03-27T17:02:35.738Z,102975.03
2019-03-27T17:05:06.498Z,102973.66
2019-03-27T17:07:34.777Z,102968.23
2019-03-27T17:10:03.397Z,102969.27
2019-03-27T17:12:31.714Z,102974.68
2019-03-27T17:15:00.030Z,102977.65
2019-03-27T17:17:29.222Z,102975.97
2019-03-27T17:19:57.494Z,102978.41
2019-03-27T17:22:26.120Z,102978.13
2019-03-27T17:24:55.999Z,102982.47
2019-03-27T17:27:24.474Z,102987.63
2019-03-27T17:29:52.909Z,102984.09
2019-03-27T17:32:21.228Z,102984.89
2019-03-27T17:34:51.930Z,102987.88
2019-03-27T17:37:19.736Z,102988.95
2019-03-27T17:39:48.038Z,102991.38
2019-03-27T17:42:16.631Z,102992.18
2019-03-27T17:44:44.887Z,102997.30
2019-03-27T17:47:13.154Z,103003.78
2019-03-27T17:49:41.486Z,103002.98
2019-03-27T17:52:09.898Z,103003.73
2019-03-27T17:54:38.163Z,103007.25
2019-03-27T17:59:49.127Z,103007.52
2019-03-27T18:02:17.449Z,103009.57
2019-03-27T18:04:45.807Z,103018.82
2019-03-27T18:07:14.076Z,103019.08
2019-03-27T18:09:42.407Z,103020.44
2019-03-27T18:12:10.675Z,103020.16
2019-03-27T18:14:39.015Z,103020.94
2019-03-27T18:17:07.311Z,103021.20
2019-03-27T18:19:35.602Z,103023.91
2019-03-27T18:22:07.898Z,103025.27
2019-03-27T18:24:33.943Z,103027.44
2019-03-27T18:27:02.204Z,103029.63
2019-03-27T18:29:30.545Z,103027.17
2019-03-27T18:31:58.995Z,103029.89
2019-03-27T18:34:27.279Z,103039.89
2019-03-27T18:36:56.129Z,103034.17
2019-03-27T18:39:24.497Z,103037.12
2019-03-27T18:41:52.747Z,103038.48
2019-03-27T18:44:21.011Z,103037.67
2019-03-27T18:46:49.291Z,103035.48
2019-03-27T18:49:17.606Z,103034.41
2019-03-27T18:51:45.891Z,103027.05
2019-03-27T18:54:14.155Z,103034.09
2019-03-27T18:56:42.631Z,103027.28
2019-03-27T18:59:10.958Z,103031.06
2019-03-27T19:01:39.290Z,103041.11
2019-03-27T19:04:07.560Z,103042.98
2019-03-27T19:06:35.961Z,103039.47
2019-03-27T19:09:07.487Z,103041.60
2019-03-27T19:11:35.881Z,103046.77
2019-03-27T19:14:04.176Z,103047.49
2019-03-27T19:16:32.562Z,103050.11
2019-03-27T19:19:00.935Z,103049.83
2019-03-27T19:21:29.200Z,103052.73
2019-03-27T19:23:57.483Z,103054.32
2019-03-27T19:26:25.749Z,103057.23
2019-03-27T19:28:54.036Z,103053.16
2019-03-27T19:31:22.282Z,103055.55
2019-03-27T19:33:50.589Z,103055.22
2019-03-27T19:36:18.940Z,103060.09
2019-03-27T19:38:47.205Z,103059.22
2019-03-27T19:41:15.585Z,103059.77
2019-03-27T19:43:43.951Z,103057.83
2019-03-27T19:46:12.244Z,103059.48
2019-03-27T19:48:40.555Z,103057.58
2019-03-27T19:51:11.251Z,103052.11
2019-03-27T19:53:38.814Z,103057.77
2019-03-27T19:56:07.074Z,103060.47
2019-03-27T19:58:35.722Z,103056.37
2019-03-27T20:01:04.153Z,103059.01
2019-03-27T20:03:34.657Z,103056.22
2019-03-27T20:06:02.626Z,103059.16
2019-03-27T20:08:31.280Z,103059.12
2019-03-27T20:10:59.519Z,103056.91
2019-03-27T20:13:27.853Z,103061.20
2019-03-27T20:15:56.095Z,103053.30
2019-03-27T20:18:24.365Z,103057.06
2019-03-27T20:20:52.629Z,103052.11
2019-03-27T20:23:21.004Z,103057.75
2019-03-27T20:25:49.286Z,103055.80
2019-03-27T20:28:17.590Z,103070.12
2019-03-27T20:30:45.977Z,103068.43
2019-03-27T20:33:14.229Z,103078.42
2019-03-27T20:35:42.659Z,103074.82
2019-03-27T20:38:10.948Z,103074.77
2019-03-27T20:40:39.297Z,103074.70
2019-03-27T20:43:07.589Z,103066.45
2019-03-27T20:45:35.867Z,103072.92
2019-03-27T20:48:04.186Z,103068.27
2019-03-27T20:50:32.488Z,103063.05
2019-03-27T20:53:00.724Z,103067.37
2019-03-27T20:55:30.683Z,103071.66
2019-03-27T20:57:59.047Z,103067.48
2019-03-27T21:00:27.302Z,103063.17
2019-03-27T21:02:55.569Z,103067.53
2019-03-27T21:05:23.888Z,103065.63
2019-03-27T21:07:52.171Z,103066.39
2019-03-27T21:10:20.537Z,103078.02
2019-03-27T21:12:49.208Z,103079.58
2019-03-27T21:15:17.559Z,103073.31
2019-03-27T21:17:45.857Z,103079.53
2019-03-27T21:20:14.254Z,103078.68
2019-03-27T21:22:43.367Z,103083.80
2019-03-27T21:25:11.804Z,103083.50
2019-03-27T21:27:40.051Z,103081.86
2019-03-27T21:30:11.707Z,103082.65
2019-03-27T21:32:39.979Z,103087.47
2019-03-27T21:35:08.461Z,103085.06
2019-03-27T21:37:37.129Z,103091.83
2019-03-27T21:40:09.606Z,103091.78
2019-03-27T21:42:37.909Z,103092.54
2019-03-27T21:45:08.719Z,103091.17
2019-03-27T21:47:37.044Z,103090.53
2019-03-27T21:50:07.598Z,103092.13
2019-03-27T21:52:36.072Z,103094.00
2019-03-27T21:55:05.937Z,103092.64
2019-03-27T21:57:34.430Z,103096.19
2019-03-27T22:00:02.974Z,103098.36
2019-03-27T22:02:31.378Z,103097.80
2019-03-27T22:04:59.717Z,103096.44
2019-03-27T22:07:28.122Z,103097.50
2019-03-27T22:09:56.491Z,103100.16
2019-03-27T22:12:24.736Z,103095.80
2019-03-27T22:14:52.986Z,103095.75
2019-03-27T22:17:21.384Z,103106.81
2019-03-27T22:19:49.610Z,103108.42
2019-03-27T22:22:17.896Z,103094.84
2019-03-27T22:24:47.653Z,103104.02
2019-03-27T22:27:15.903Z,103101.04
2019-03-27T22:29:44.148Z,103107.75
2019-03-27T22:32:12.414Z,103103.91
2019-03-27T22:34:40.708Z,103107.65
2019-03-27T22:37:09.078Z,103098.99
2019-03-27T22:39:37.350Z,103103.05
2019-03-27T22:42:05.607Z,103103.55
2019-03-27T22:44:34.888Z,103099.94
2019-03-27T22:47:03.231Z,103101.55
2019-03-27T22:49:31.528Z,103105.28
2019-03-27T22:51:59.803Z,103107.98
2019-03-27T22:54:28.044Z,103102.79
2019-03-27T22:57:00.051Z,103102.28
2019-03-27T22:59:28.282Z,103104.98
2019-03-27T23:01:56.604Z,103103.63
2019-03-27T23:04:24.890Z,103102.79
2019-03-27T23:06:53.193Z,103100.58
2019-03-27T23:09:21.460Z,103103.83
2019-03-27T23:11:50.084Z,103102.42
2019-03-27T23:14:18.532Z,103100.17
2019-03-27T23:16:47.051Z,103103.96
2019-03-27T23:19:15.397Z,103105.77
2019-03-27T23:21:43.803Z,103106.07
2019-03-27T23:24:12.134Z,103106.91
2019-03-27T23:26:40.556Z,103107.36
2019-03-27T23:29:08.860Z,103105.50
2019-03-27T23:31:37.118Z,103102.80
2019-03-27T23:34:06.976Z,103111.13
2019-03-27T23:36:35.322Z,103110.31
2019-03-27T23:39:04.322Z,103105.96
2019-03-27T23:41:32.649Z,103110.80
2019-03-27T23:44:00.915Z,103108.09
2019-03-27T23:46:29.204Z,103106.20
2019-03-27T23:48:57.518Z,103102.15
2019-03-27T23:51:25.887Z,103113.51
2019-03-27T23:53:54.141Z,103105.91
2019-03-27T23:56:23.097Z,103103.50
2019-03-27T23:58:52.654Z,103115.86
